Neva Corners, Wisconsin
Current Conditions -  °F | °C
As of 10:15 PM on Monday 22 Dec 2014 (Local Time) from KAIG Reporting Station
Light Snow Light Snow  
Wind Chill: 20°   Ceiling: 700
Heat Index: 31°   Visibility: 2mi
Dew Point: 30°   Wind: 15mph
Humidity: 96%   Direction: 100°E
Pressure: 29.71"   Gusts: 21mph
Location:  45.2445°N, 89.211°W
Report Text: KAIG 230415Z AUTO 10013G18KT 2SM -SN OVC007 M01/M01 A2971 RMK AO2 T10071012
Loading
Personal Weather Stations






























Interactive Weather Map New forecast layout! Learn more

10-Day Weather Forecast

Advertisements
Track Severe Weather on mobile